Time;durP1;ratioP1;P1;durP2;ratioP2;P2;SDS_P1;SDS_P2;PMS_P1;PMS_P2;Temp;Humidity;BMP_temperature;BMP_pressure;BME280_temperature;BME280_humidity;BME280_pressure;Samples;Min_cycle;Max_cycle;Signal;HPM_P1;HPM_P2
2021/04/08 00:00:55;;;;;;;23.23;21.73;;;3.60;81.90;;;;;;5133637;27;20213;-74
2021/04/08 00:03:22;;;;;;;22.70;21.40;;;3.50;82.80;;;;;;5133296;27;20233;-74
2021/04/08 00:05:49;;;;;;;21.85;20.40;;;3.50;83.30;;;;;;5133000;27;20658;-74
2021/04/08 00:08:15;;;;;;;23.80;22.40;;;3.50;84.10;;;;;;5133148;27;20289;-74
2021/04/08 00:10:42;;;;;;;31.98;22.77;;;3.40;84.30;;;;;;5133234;27;20242;-75
2021/04/08 00:13:08;;;;;;;23.42;22.05;;;3.40;86.10;;;;;;5138922;22;20316;-74
2021/04/08 00:15:34;;;;;;;23.45;21.95;;;3.40;85.70;;;;;;5133953;27;20558;-75
2021/04/08 00:18:01;;;;;;;23.35;21.88;;;3.50;85.30;;;;;;5134299;27;20736;-74
2021/04/08 00:20:27;;;;;;;22.80;21.30;;;3.50;85.10;;;;;;5133267;27;20299;-75
2021/04/08 00:22:54;;;;;;;22.00;20.85;;;3.40;85.50;;;;;;5133328;28;20279;-74
2021/04/08 00:25:21;;;;;;;21.25;19.95;;;3.40;85.90;;;;;;5132893;27;20680;-73
2021/04/08 00:27:47;;;;;;;21.65;20.50;;;3.20;86.10;;;;;;5132827;28;20286;-75
2021/04/08 00:30:15;;;;;;;22.63;20.88;;;3.30;86.30;;;;;;5133114;28;20647;-74
2021/04/08 00:32:41;;;;;;;22.63;20.88;;;3.30;86.10;;;;;;5133336;28;20249;-74
2021/04/08 00:35:09;;;;;;;21.23;19.92;;;3.30;86.30;;;;;;5132978;28;20219;-74
2021/04/08 00:37:36;;;;;;;22.02;20.80;;;3.30;86.50;;;;;;5132659;27;20242;-74
2021/04/08 00:40:07;;;;;;;21.20;19.80;;;3.30;86.20;;;;;;5132952;27;20304;-75
2021/04/08 00:42:33;;;;;;;20.20;18.90;;;3.20;86.50;;;;;;5133060;28;20657;-74
2021/04/08 00:45:00;;;;;;;21.05;19.58;;;3.20;87.10;;;;;;5132858;28;20196;-74
2021/04/08 00:47:26;;;;;;;21.73;20.20;;;3.30;87.10;;;;;;5132630;28;20196;-74
2021/04/08 00:49:53;;;;;;;21.95;20.65;;;3.30;86.90;;;;;;5132921;27;20226;-74
2021/04/08 00:52:19;;;;;;;21.65;20.15;;;3.30;86.70;;;;;;5132867;28;20235;-76
2021/04/08 00:54:47;;;;;;;22.48;20.98;;;3.20;86.40;;;;;;5132794;28;20297;-77
2021/04/08 00:57:14;;;;;;;23.20;21.35;;;3.10;86.40;;;;;;5132331;28;20204;-74
2021/04/08 00:59:41;;;;;;;22.00;20.60;;;3.10;86.60;;;;;;5132821;28;20696;-74
2021/04/08 01:02:09;;;;;;;21.58;20.27;;;3.10;87.40;;;;;;5132818;27;20201;-74
2021/04/08 01:04:36;;;;;;;22.15;20.58;;;3.10;87.40;;;;;;5137060;27;20248;-73
2021/04/08 01:07:03;;;;;;;21.90;20.45;;;3.10;87.50;;;;;;5136477;27;20199;-75
2021/04/08 01:09:29;;;;;;;22.42;20.92;;;3.10;87.10;;;;;;5136189;27;20626;-75
2021/04/08 01:11:56;;;;;;;21.58;20.17;;;3.20;86.60;;;;;;5137001;27;20206;-75
2021/04/08 01:14:23;;;;;;;21.65;20.08;;;3.30;86.50;;;;;;5136856;27;20217;-74
2021/04/08 01:16:56;;;;;;;21.83;20.42;;;3.30;86.90;;;;;;5136128;27;20255;-74
2021/04/08 01:20:15;;;;;;;21.27;19.98;;;3.30;86.50;;;;;;5136683;27;20224;-75
2021/04/08 01:23:04;;;;;;;22.23;20.90;;;3.30;88.20;;;;;;5136646;27;20203;-75
2021/04/08 01:26:00;;;;;;;23.05;21.52;;;3.30;87.20;;;;;;5136325;27;20283;-73
2021/04/08 01:28:31;;;;;;;24.08;21.50;;;3.40;86.60;;;;;;5136455;27;20208;-75
2021/04/08 01:31:01;;;;;;;22.95;21.35;;;3.40;86.40;;;;;;5136718;27;20245;-74
2021/04/08 01:33:32;;;;;;;23.15;21.65;;;3.30;87.20;;;;;;5136436;27;20190;-74
2021/04/08 01:36:04;;;;;;;24.17;22.58;;;3.30;86.90;;;;;;5136000;27;20706;-75
2021/04/08 01:38:33;;;;;;;22.77;21.23;;;3.40;86.00;;;;;;5137173;27;20288;-75
2021/04/08 01:41:02;;;;;;;165.13;31.13;;;3.40;85.80;;;;;;5137113;27;20258;-75
2021/04/08 01:43:34;;;;;;;100.05;28.40;;;3.40;87.30;;;;;;5137205;27;20227;-75
2021/04/08 01:46:03;;;;;;;254.27;42.47;;;3.40;89.80;;;;;;5136684;27;20203;-75
2021/04/08 01:48:30;;;;;;;21.52;19.92;;;3.30;92.30;;;;;;5136821;27;20693;-75
2021/04/08 01:51:00;;;;;;;21.35;20.00;;;3.30;92.10;;;;;;5136531;27;20289;-74
2021/04/08 01:53:28;;;;;;;22.38;20.90;;;3.30;90.50;;;;;;5136760;27;20208;-75
2021/04/08 01:55:58;;;;;;;22.33;21.02;;;3.30;89.20;;;;;;5136415;27;20657;-75
2021/04/08 01:58:27;;;;;;;1381.95;169.77;;;3.40;89.20;;;;;;5136671;27;20265;-76
2021/04/08 02:00:55;;;;;;;38.20;22.45;;;3.40;89.30;;;;;;5136652;27;20300;-75
2021/04/08 02:03:23;;;;;;;21.80;20.40;;;3.40;90.60;;;;;;5136592;27;20679;-75
2021/04/08 02:05:50;;;;;;;22.13;20.50;;;3.40;89.20;;;;;;5135466;27;20197;-74
2021/04/08 02:08:18;;;;;;;232.23;42.65;;;3.40;90.00;;;;;;5135241;27;20283;-74
2021/04/08 02:10:45;;;;;;;23.05;21.55;;;3.50;91.10;;;;;;5135468;27;20577;-75
2021/04/08 02:13:15;;;;;;;23.92;22.17;;;3.50;86.90;;;;;;5135265;27;20308;-75
2021/04/08 02:15:44;;;;;;;22.55;21.15;;;3.60;84.60;;;;;;5133867;27;20283;-74
2021/04/08 02:18:15;;;;;;;23.70;21.77;;;3.60;82.40;;;;;;5135411;27;20197;-74
2021/04/08 02:20:43;;;;;;;21.40;20.08;;;3.60;82.10;;;;;;5135506;27;20303;-74
2021/04/08 02:23:11;;;;;;;21.88;20.58;;;3.70;81.90;;;;;;5135535;27;20288;-74
2021/04/08 02:25:38;;;;;;;23.10;21.60;;;3.70;80.80;;;;;;5134830;27;20283;-74
2021/04/08 02:28:07;;;;;;;24.60;22.75;;;3.60;81.60;;;;;;5135257;27;20336;-73
2021/04/08 02:30:46;;;;;;;22.45;21.05;;;3.50;81.70;;;;;;5134991;27;20558;-74
2021/04/08 02:33:14;;;;;;;22.83;21.15;;;3.50;81.60;;;;;;5135311;27;20209;-74
2021/04/08 02:35:41;;;;;;;22.45;21.10;;;3.50;81.40;;;;;;5134636;27;20311;-74
2021/04/08 02:38:08;;;;;;;22.77;21.38;;;3.50;81.50;;;;;;5135084;27;20198;-74
2021/04/08 02:40:35;;;;;;;23.48;21.88;;;3.50;82.30;;;;;;5134902;27;20245;-74
2021/04/08 02:43:02;;;;;;;21.25;19.95;;;3.50;82.10;;;;;;5134944;27;20236;-74
2021/04/08 02:45:29;;;;;;;22.67;20.92;;;3.40;83.40;;;;;;5134380;27;20283;-73
2021/04/08 02:47:55;;;;;;;50.38;22.75;;;3.40;84.50;;;;;;5134942;27;20233;-73
2021/04/08 02:50:22;;;;;;;22.20;20.83;;;3.40;85.50;;;;;;5134861;27;20232;-74
2021/04/08 02:53:02;;;;;;;20.25;19.05;;;3.40;86.20;;;;;;5134986;27;20194;-74
2021/04/08 02:55:34;;;;;;;21.95;20.55;;;3.40;87.00;;;;;;5134156;27;20218;-74
2021/04/08 02:58:03;;;;;;;23.20;21.83;;;3.50;85.00;;;;;;5134726;27;20279;-74
2021/04/08 03:00:32;;;;;;;23.23;21.83;;;3.40;84.20;;;;;;5134448;27;20224;-74
2021/04/08 03:03:03;;;;;;;23.35;21.65;;;3.60;83.20;;;;;;5134568;27;20217;-75
2021/04/08 03:05:31;;;;;;;22.58;21.27;;;3.60;82.50;;;;;;5134987;27;20225;-75
2021/04/08 03:08:04;;;;;;;23.20;21.80;;;3.60;82.40;;;;;;5134080;27;20695;-74
2021/04/08 03:10:31;;;;;;;24.60;23.10;;;3.60;82.70;;;;;;5134369;27;20221;-74
2021/04/08 03:13:00;;;;;;;24.38;22.83;;;3.50;83.60;;;;;;5133734;27;20246;-74
2021/04/08 03:15:29;;;;;;;24.10;22.45;;;3.50;83.20;;;;;;5134066;27;20751;-73
2021/04/08 03:17:58;;;;;;;23.88;22.48;;;3.50;84.50;;;;;;5134323;27;20212;-74
2021/04/08 03:20:24;;;;;;;22.40;20.92;;;3.70;83.00;;;;;;5133985;27;20213;-74
2021/04/08 03:22:52;;;;;;;22.60;21.10;;;3.70;86.00;;;;;;5134223;27;20538;-76
2021/04/08 03:25:21;;;;;;;22.60;21.20;;;3.70;83.60;;;;;;5133588;27;20196;-75
2021/04/08 03:27:49;;;;;;;24.90;23.40;;;3.70;81.20;;;;;;5133891;27;20198;-74
2021/04/08 03:30:17;;;;;;;23.77;22.23;;;3.70;80.60;;;;;;5133910;27;20216;-75
2021/04/08 03:32:44;;;;;;;24.25;22.48;;;3.50;81.00;;;;;;5134029;27;20236;-75
2021/04/08 03:35:12;;;;;;;22.20;21.00;;;3.60;81.10;;;;;;5133863;27;20311;-74
2021/04/08 03:37:40;;;;;;;25.15;22.85;;;3.60;81.60;;;;;;5133559;27;20194;-74
2021/04/08 03:40:09;;;;;;;22.77;21.45;;;3.50;82.50;;;;;;5133923;27;20710;-74
2021/04/08 03:42:38;;;;;;;23.05;21.65;;;3.50;85.20;;;;;;5134022;27;20280;-75
2021/04/08 03:45:05;;;;;;;23.27;21.85;;;3.60;83.50;;;;;;5133669;27;20189;-74
2021/04/08 03:47:31;;;;;;;22.33;21.10;;;3.60;84.00;;;;;;5133373;27;20225;-74
2021/04/08 03:50:00;;;;;;;23.25;21.50;;;3.60;82.80;;;;;;5133782;27;20259;-74
2021/04/08 03:52:27;;;;;;;21.50;20.30;;;3.60;81.80;;;;;;5133762;27;20729;-74
2021/04/08 03:54:56;;;;;;;25.08;23.67;;;3.70;81.10;;;;;;5133642;27;20214;-74
2021/04/08 03:57:23;;;;;;;25.00;23.60;;;3.70;82.10;;;;;;5133172;27;20290;-75
2021/04/08 03:59:51;;;;;;;24.55;23.27;;;3.60;81.60;;;;;;5133611;27;20277;-74
2021/04/08 04:02:19;;;;;;;76.78;27.80;;;3.50;82.00;;;;;;5133418;27;20194;-74
2021/04/08 04:04:48;;;;;;;23.20;21.77;;;3.60;83.00;;;;;;5133431;27;20281;-75
2021/04/08 04:07:15;;;;;;;24.38;21.85;;;3.50;83.10;;;;;;5132871;27;20285;-74
2021/04/08 04:09:42;;;;;;;22.90;21.40;;;3.50;82.80;;;;;;5132751;27;20296;-75
2021/04/08 04:12:14;;;;;;;22.55;21.23;;;3.40;86.40;;;;;;5133307;27;20229;-75
2021/04/08 04:14:44;;;;;;;549.58;75.47;;;3.50;85.10;;;;;;5132889;27;20214;-74
2021/04/08 04:17:26;;;;;;;21.95;20.30;;;3.40;92.00;;;;;;5132915;27;20632;-74
2021/04/08 04:19:53;;;;;;;20.95;19.55;;;3.50;90.80;;;;;;5133325;27;20227;-75
2021/04/08 04:22:20;;;;;;;21.23;19.73;;;3.40;88.90;;;;;;5133182;27;20239;-75
2021/04/08 04:24:47;;;;;;;720.83;96.40;;;3.40;89.30;;;;;;5133221;27;20202;-74
2021/04/08 04:27:14;;;;;;;22.35;21.05;;;3.40;93.10;;;;;;5132624;28;20678;-74
2021/04/08 04:29:40;;;;;;;20.33;19.00;;;3.40;91.00;;;;;;5133100;28;20221;-74
2021/04/08 04:32:09;;;;;;;23.02;21.42;;;3.30;87.60;;;;;;5133311;28;20333;-74
2021/04/08 04:34:36;;;;;;;21.42;20.13;;;3.20;87.60;;;;;;5133067;28;20303;-75
2021/04/08 04:37:03;;;;;;;23.77;22.23;;;3.10;87.30;;;;;;5132599;27;20595;-74
2021/04/08 04:39:29;;;;;;;21.27;20.08;;;3.20;87.40;;;;;;5137318;27;20304;-74
2021/04/08 04:41:56;;;;;;;188.35;33.63;;;3.30;87.30;;;;;;5137234;27;20196;-74
2021/04/08 04:44:23;;;;;;;22.75;21.20;;;3.30;89.30;;;;;;5137280;27;20242;-74
2021/04/08 04:46:49;;;;;;;23.90;22.02;;;3.30;90.50;;;;;;5136763;27;20676;-75
2021/04/08 04:49:15;;;;;;;191.77;52.85;;;3.30;89.30;;;;;;5137240;27;20201;-74
2021/04/08 04:51:43;;;;;;;26.73;24.30;;;3.30;91.10;;;;;;5137158;27;20286;-74
2021/04/08 04:54:09;;;;;;;23.40;21.50;;;3.30;89.10;;;;;;5136984;27;20303;-76
2021/04/08 04:56:36;;;;;;;22.48;20.98;;;3.40;87.10;;;;;;5136676;27;20199;-76
2021/04/08 04:59:02;;;;;;;22.33;20.80;;;3.40;86.60;;;;;;5137042;27;20674;-77
2021/04/08 05:01:28;;;;;;;22.02;20.63;;;3.30;86.70;;;;;;5137289;27;20739;-76
2021/04/08 05:03:55;;;;;;;23.50;21.90;;;3.40;85.50;;;;;;5137004;27;20281;-76
2021/04/08 05:06:21;;;;;;;22.67;20.80;;;3.40;84.20;;;;;;5136247;27;20344;-76
2021/04/08 05:08:49;;;;;;;23.92;22.42;;;3.40;83.70;;;;;;5136227;27;20193;-76
2021/04/08 05:11:15;;;;;;;25.38;23.33;;;3.40;83.00;;;;;;5136801;27;20252;-75
2021/04/08 05:13:42;;;;;;;22.88;21.38;;;3.40;83.10;;;;;;5136495;27;20205;-76
2021/04/08 05:16:08;;;;;;;24.35;22.58;;;3.40;83.20;;;;;;5136205;27;20194;-76
2021/04/08 05:18:35;;;;;;;23.23;21.85;;;3.30;83.50;;;;;;5136781;27;20197;-76
2021/04/08 05:21:01;;;;;;;25.23;23.58;;;3.40;83.70;;;;;;5136313;27;20264;-76
2021/04/08 05:23:28;;;;;;;26.35;24.75;;;3.40;83.30;;;;;;5136493;27;20603;-76
2021/04/08 05:25:55;;;;;;;24.20;22.58;;;3.40;82.60;;;;;;5136037;27;20246;-76
2021/04/08 05:28:21;;;;;;;24.27;22.63;;;3.40;82.00;;;;;;5136504;27;20684;-76
2021/04/08 05:30:47;;;;;;;24.73;23.23;;;3.30;81.90;;;;;;5136531;27;20717;-76
2021/04/08 05:33:14;;;;;;;24.00;22.38;;;3.30;81.60;;;;;;5136614;27;20256;-76
2021/04/08 05:35:40;;;;;;;27.60;25.05;;;3.20;81.20;;;;;;5135700;27;20220;-76
2021/04/08 05:38:06;;;;;;;25.98;24.10;;;3.30;80.80;;;;;;5136372;27;20627;-76
2021/04/08 05:40:33;;;;;;;25.13;23.50;;;3.30;79.40;;;;;;5136195;27;20224;-76
2021/04/08 05:43:00;;;;;;;25.13;23.83;;;3.30;79.30;;;;;;5136228;27;20284;-75
2021/04/08 05:45:27;;;;;;;25.35;23.73;;;3.30;79.80;;;;;;5135919;27;20281;-75
2021/04/08 05:47:54;;;;;;;24.10;22.40;;;3.40;79.50;;;;;;5136135;27;20533;-76
2021/04/08 05:50:20;;;;;;;24.63;23.13;;;3.50;78.30;;;;;;5135801;27;20210;-75
2021/04/08 05:52:47;;;;;;;24.88;23.38;;;3.60;77.00;;;;;;5135919;27;20201;-77
2021/04/08 05:55:13;;;;;;;24.95;23.50;;;3.60;76.60;;;;;;5136024;27;20221;-76
2021/04/08 05:57:40;;;;;;;24.85;23.35;;;3.70;78.60;;;;;;5135449;27;20208;-76
2021/04/08 06:00:10;;;;;;;26.50;24.90;;;3.90;79.70;;;;;;5135852;27;20333;-76
2021/04/08 06:02:36;;;;;;;27.40;25.73;;;4.10;77.90;;;;;;5136140;27;20737;-76
2021/04/08 06:05:06;;;;;;;27.05;25.45;;;4.20;76.50;;;;;;5135802;27;20249;-76
2021/04/08 06:07:32;;;;;;;26.20;24.08;;;4.40;75.10;;;;;;5135058;27;20216;-76
2021/04/08 06:09:58;;;;;;;27.90;25.98;;;4.50;74.30;;;;;;5135214;27;20299;-76
2021/04/08 06:12:25;;;;;;;25.85;24.25;;;4.60;73.80;;;;;;5135692;27;20190;-77
2021/04/08 06:14:55;;;;;;;27.65;25.85;;;4.70;73.70;;;;;;5135548;27;20218;-76
2021/04/08 06:17:23;;;;;;;25.10;23.48;;;4.70;73.20;;;;;;5135001;27;20190;-76
2021/04/08 06:19:49;;;;;;;27.83;26.23;;;4.80;74.10;;;;;;5135544;27;20260;-77
2021/04/08 06:22:16;;;;;;;25.05;23.55;;;4.80;75.40;;;;;;5135495;27;20242;-76
2021/04/08 06:24:42;;;;;;;29.08;27.23;;;5.00;73.90;;;;;;5135496;27;20190;-76
2021/04/08 06:27:09;;;;;;;25.45;23.80;;;5.10;72.50;;;;;;5135033;27;20198;-76
2021/04/08 06:29:36;;;;;;;26.13;24.45;;;5.20;73.70;;;;;;5135263;27;20213;-76
2021/04/08 06:32:04;;;;;;;26.50;24.80;;;5.20;71.20;;;;;;5135413;27;20232;-77
2021/04/08 06:34:31;;;;;;;28.63;26.55;;;5.30;70.10;;;;;;5135127;27;20224;-76
2021/04/08 06:36:57;;;;;;;27.45;25.65;;;5.40;71.40;;;;;;5134734;27;20281;-76
2021/04/08 06:39:23;;;;;;;28.08;26.70;;;5.50;69.70;;;;;;5135107;27;20257;-76
2021/04/08 06:41:51;;;;;;;27.25;25.13;;;5.60;68.70;;;;;;5135132;27;20272;-76
2021/04/08 06:44:22;;;;;;;26.45;24.95;;;5.70;68.50;;;;;;5135203;27;20198;-76
2021/04/08 06:46:53;;;;;;;27.38;25.75;;;5.80;68.50;;;;;;5134309;27;20225;-76
2021/04/08 06:49:27;;;;;;;27.30;25.60;;;5.90;70.30;;;;;;5134828;27;20339;-76
2021/04/08 06:51:56;;;;;;;28.65;26.60;;;5.90;70.10;;;;;;5135126;27;20201;-76
2021/04/08 06:54:23;;;;;;;27.55;25.73;;;5.90;68.10;;;;;;5134958;27;20757;-77
2021/04/08 06:56:50;;;;;;;29.15;26.98;;;6.00;67.90;;;;;;5134154;27;20607;-77
2021/04/08 06:59:18;;;;;;;29.23;27.48;;;6.20;65.50;;;;;;5134588;27;20671;-77
2021/04/08 07:01:45;;;;;;;28.58;26.88;;;6.30;63.40;;;;;;5133793;27;20225;-77
2021/04/08 07:04:12;;;;;;;30.42;28.13;;;6.20;62.40;;;;;;5134562;27;20190;-76
2021/04/08 07:06:39;;;;;;;29.40;27.45;;;6.10;63.80;;;;;;5134053;27;20202;-76
2021/04/08 07:09:09;;;;;;;27.48;25.65;;;6.20;66.70;;;;;;5133903;27;20312;-77
2021/04/08 07:11:36;;;;;;;29.50;27.70;;;6.30;62.90;;;;;;5134360;27;20286;-76
2021/04/08 07:14:03;;;;;;;29.25;27.00;;;6.40;63.40;;;;;;5134024;27;20210;-76
2021/04/08 07:16:30;;;;;;;29.33;26.77;;;6.50;62.60;;;;;;5133920;27;20360;-77
2021/04/08 07:18:58;;;;;;;29.67;27.73;;;6.50;61.00;;;;;;5134299;27;20670;-77
2021/04/08 07:21:28;;;;;;;29.05;27.25;;;6.50;60.90;;;;;;5134334;27;20219;-76
2021/04/08 07:24:12;;;;;;;28.95;26.50;;;6.50;60.20;;;;;;5134240;27;20204;-77
2021/04/08 07:26:57;;;;;;;29.75;27.75;;;6.70;59.90;;;;;;5133553;27;20280;-77
2021/04/08 07:29:43;;;;;;;28.63;26.92;;;6.90;60.50;;;;;;5133929;27;20211;-76
2021/04/08 07:32:12;;;;;;;29.02;26.85;;;7.00;58.60;;;;;;5134225;27;20611;-76
2021/04/08 07:34:39;;;;;;;31.15;29.10;;;6.80;62.20;;;;;;5133805;27;20593;-76
2021/04/08 07:37:07;;;;;;;28.42;26.65;;;6.80;65.50;;;;;;5133211;27;20204;-76
2021/04/08 07:39:38;;;;;;;32.30;29.98;;;7.00;61.10;;;;;;5133898;27;20344;-76
2021/04/08 07:42:07;;;;;;;30.33;28.30;;;7.10;59.20;;;;;;5134115;27;20287;-77
2021/04/08 07:44:45;;;;;;;29.20;27.35;;;7.10;60.70;;;;;;5133908;27;20716;-76
2021/04/08 07:47:23;;;;;;;30.00;28.10;;;7.40;58.90;;;;;;5133050;27;20716;-76
2021/04/08 07:49:51;;;;;;;31.65;29.77;;;7.40;59.30;;;;;;5133773;27;20645;-76
2021/04/08 07:52:21;;;;;;;30.30;28.20;;;7.50;57.70;;;;;;5133753;27;20297;-76
2021/04/08 07:55:04;;;;;;;31.30;29.08;;;7.50;57.60;;;;;;5133817;27;20251;-76
2021/04/08 07:57:32;;;;;;;30.65;28.67;;;7.40;60.00;;;;;;5133099;27;20585;-77
2021/04/08 08:00:17;;;;;;;29.63;27.35;;;7.40;60.60;;;;;;5133595;27;20213;-77
2021/04/08 08:02:44;;;;;;;31.48;29.48;;;7.50;58.20;;;;;;5133604;27;20225;-75
2021/04/08 08:05:21;;;;;;;32.50;30.08;;;7.40;56.90;;;;;;5133533;27;20660;-76
2021/04/08 08:07:48;;;;;;;30.80;28.23;;;7.20;56.90;;;;;;5132699;27;20234;-76
2021/04/08 08:10:17;;;;;;;29.15;27.35;;;6.90;57.20;;;;;;5133323;27;20639;-76
2021/04/08 08:12:44;;;;;;;29.52;27.35;;;6.90;57.40;;;;;;5133327;27;20211;-78
2021/04/08 08:15:15;;;;;;;28.23;26.45;;;6.70;57.30;;;;;;5133175;27;20217;-76
2021/04/08 08:17:41;;;;;;;29.08;27.13;;;6.50;57.90;;;;;;5132966;27;20224;-77
2021/04/08 08:20:09;;;;;;;28.55;26.65;;;6.60;58.20;;;;;;5133268;27;20708;-76
2021/04/08 08:22:37;;;;;;;29.27;27.48;;;6.40;57.20;;;;;;5133450;27;20281;-76
2021/04/08 08:25:05;;;;;;;28.25;26.33;;;6.30;57.80;;;;;;5133392;27;20281;-76
2021/04/08 08:27:54;;;;;;;28.52;26.45;;;6.20;58.30;;;;;;5133066;27;20258;-76
2021/04/08 08:30:22;;;;;;;28.38;26.50;;;6.40;58.70;;;;;;5127451;27;20218;-76
2021/04/08 08:33:05;;;;;;;30.85;28.88;;;6.50;57.70;;;;;;5133492;28;20226;-76
2021/04/08 08:35:32;;;;;;;28.50;26.63;;;6.50;58.00;;;;;;5132989;28;20297;-76
2021/04/08 08:38:08;;;;;;;26.88;25.15;;;6.70;61.10;;;;;;5133437;28;20218;-76
2021/04/08 08:40:36;;;;;;;26.75;24.90;;;6.90;58.00;;;;;;5133512;28;20305;-76
2021/04/08 08:43:04;;;;;;;26.60;24.77;;;7.20;57.20;;;;;;5133247;28;20734;-76
2021/04/08 08:45:32;;;;;;;29.30;27.38;;;7.40;56.70;;;;;;5132809;28;20246;-78
2021/04/08 08:48:01;;;;;;;28.23;26.35;;;7.60;56.00;;;;;;5133349;28;20208;-77
2021/04/08 08:50:28;;;;;;;33.53;28.83;;;7.70;55.60;;;;;;5133115;28;20236;-76
2021/04/08 08:52:54;;;;;;;27.88;26.10;;;8.00;54.10;;;;;;5133218;28;20208;-76
2021/04/08 08:55:23;;;;;;;30.48;28.27;;;8.20;53.70;;;;;;5132808;27;20214;-78
2021/04/08 08:57:52;;;;;;;28.70;26.90;;;8.30;53.00;;;;;;5132972;28;20196;-77
2021/04/08 09:00:21;;;;;;;28.65;26.95;;;8.30;57.00;;;;;;5133018;28;20301;-77
2021/04/08 09:02:47;;;;;;;28.85;26.95;;;8.50;54.60;;;;;;5132863;28;20197;-77
2021/04/08 09:05:17;;;;;;;28.00;26.40;;;8.60;54.90;;;;;;5132891;27;20194;-76
2021/04/08 09:07:45;;;;;;;28.38;26.25;;;8.60;53.50;;;;;;5132165;27;20197;-77
2021/04/08 09:10:15;;;;;;;29.33;27.45;;;8.70;51.50;;;;;;5132459;27;20217;-77
2021/04/08 09:12:42;;;;;;;28.20;26.35;;;8.80;51.30;;;;;;5132509;28;20206;-77
2021/04/08 09:15:10;;;;;;;29.42;27.42;;;9.00;50.10;;;;;;5132464;28;20245;-76
2021/04/08 09:17:45;;;;;;;27.65;25.60;;;8.60;48.60;;;;;;5132328;27;20271;-78
2021/04/08 09:20:15;;;;;;;26.80;25.30;;;8.50;50.50;;;;;;5132696;28;20304;-76
2021/04/08 09:22:56;;;;;;;27.08;25.58;;;8.60;52.80;;;;;;5132627;27;20233;-76
2021/04/08 09:25:27;;;;;;;27.45;25.55;;;8.70;50.60;;;;;;5136032;27;20196;-76
2021/04/08 09:27:57;;;;;;;26.90;24.98;;;8.50;49.80;;;;;;5136496;27;20197;-76
2021/04/08 09:30:51;;;;;;;28.45;26.65;;;8.50;50.10;;;;;;5136387;27;20702;-76
2021/04/08 09:33:20;;;;;;;26.85;24.95;;;8.40;49.40;;;;;;5136470;27;20198;-77
2021/04/08 09:35:46;;;;;;;28.13;26.52;;;8.20;50.90;;;;;;5135725;27;20221;-76
2021/04/08 09:38:17;;;;;;;27.13;25.30;;;8.10;50.50;;;;;;5136428;27;20624;-76
2021/04/08 09:40:58;;;;;;;26.05;24.35;;;8.00;49.40;;;;;;5136265;27;20217;-76
2021/04/08 09:43:26;;;;;;;26.67;25.08;;;7.60;50.40;;;;;;5136390;27;20193;-76
2021/04/08 09:46:06;;;;;;;28.40;26.70;;;7.60;51.30;;;;;;5135537;27;20235;-76
2021/04/08 09:48:49;;;;;;;26.65;24.88;;;7.70;50.80;;;;;;5136351;27;20658;-76
2021/04/08 09:51:37;;;;;;;27.10;25.30;;;7.50;51.50;;;;;;5134492;27;20257;-76
2021/04/08 09:54:06;;;;;;;26.90;25.20;;;7.20;50.40;;;;;;5135864;27;20203;-76
2021/04/08 09:56:44;;;;;;;27.60;25.90;;;7.00;52.50;;;;;;5135569;27;20202;-76
2021/04/08 09:59:11;;;;;;;27.02;25.52;;;7.40;52.30;;;;;;5136556;27;20200;-76
2021/04/08 10:01:38;;;;;;;29.25;27.10;;;7.80;53.10;;;;;;5136336;27;20764;-77
2021/04/08 10:04:13;;;;;;;26.90;25.20;;;8.00;51.60;;;;;;5135949;27;20351;-77
2021/04/08 10:06:40;;;;;;;28.15;26.30;;;8.20;51.80;;;;;;5135082;27;20194;-77
2021/04/08 10:09:08;;;;;;;28.23;26.40;;;8.40;52.20;;;;;;5135155;27;20193;-77
2021/04/08 10:11:34;;;;;;;27.88;25.95;;;8.60;50.90;;;;;;5135651;27;20281;-75
2021/04/08 10:14:00;;;;;;;26.52;24.92;;;8.90;49.50;;;;;;5135261;27;20293;-76
2021/04/08 10:16:27;;;;;;;25.52;24.00;;;9.00;47.60;;;;;;5135093;27;20615;-76
2021/04/08 10:18:59;;;;;;;27.98;25.77;;;9.00;48.10;;;;;;5135565;27;20282;-78
2021/04/08 10:21:27;;;;;;;25.80;24.05;;;9.00;50.50;;;;;;5135248;27;20232;-76
2021/04/08 10:23:55;;;;;;;26.60;24.75;;;9.10;49.30;;;;;;5135487;27;20232;-77
2021/04/08 10:26:24;;;;;;;27.73;25.90;;;8.70;49.20;;;;;;5134692;27;20186;-76
2021/04/08 10:28:53;;;;;;;26.95;24.98;;;8.70;49.90;;;;;;5135493;27;20200;-77
2021/04/08 10:31:20;;;;;;;26.30;24.55;;;8.60;51.60;;;;;;5135291;27;20305;-76
2021/04/08 10:33:48;;;;;;;25.70;24.20;;;8.70;51.80;;;;;;5135212;27;20262;-76
2021/04/08 10:36:27;;;;;;;25.15;23.65;;;8.70;51.00;;;;;;5133332;27;20222;-77
2021/04/08 10:39:10;;;;;;;25.30;23.77;;;9.00;51.50;;;;;;5135217;27;20233;-76
2021/04/08 10:41:38;;;;;;;25.48;23.95;;;9.00;49.30;;;;;;5133362;27;20236;-77
2021/04/08 10:44:26;;;;;;;25.80;23.95;;;9.00;49.50;;;;;;5135065;27;20205;-77
2021/04/08 10:46:53;;;;;;;24.98;23.42;;;9.10;49.60;;;;;;5134552;27;20713;-76
2021/04/08 10:49:25;;;;;;;25.98;24.27;;;9.20;48.50;;;;;;5135385;27;20193;-77
2021/04/08 10:51:54;;;;;;;27.25;25.45;;;9.00;48.80;;;;;;5135189;27;20201;-75
2021/04/08 10:54:26;;;;;;;26.48;24.67;;;9.10;49.40;;;;;;5134678;27;20232;-76
2021/04/08 10:56:53;;;;;;;26.75;24.98;;;9.00;47.80;;;;;;5134376;27;20563;-75
2021/04/08 10:59:21;;;;;;;29.45;27.67;;;8.80;48.00;;;;;;5134599;27;20284;-76
2021/04/08 11:01:49;;;;;;;28.30;26.15;;;8.60;48.70;;;;;;5134584;27;20190;-76
2021/04/08 11:04:15;;;;;;;29.58;27.17;;;8.40;49.20;;;;;;5134716;27;20670;-75
2021/04/08 11:06:42;;;;;;;26.58;25.00;;;8.40;49.40;;;;;;5133867;27;20281;-76
2021/04/08 11:09:10;;;;;;;29.77;27.90;;;8.40;48.80;;;;;;5133759;27;20550;-75
2021/04/08 11:11:36;;;;;;;26.75;25.15;;;8.50;50.20;;;;;;5134544;27;20194;-76
2021/04/08 11:14:03;;;;;;;25.70;24.10;;;8.70;47.40;;;;;;5134051;27;20208;-76
2021/04/08 11:16:31;;;;;;;26.20;24.60;;;8.90;48.00;;;;;;5133698;27;20574;-75
2021/04/08 11:19:02;;;;;;;25.90;24.50;;;9.20;47.00;;;;;;5134418;27;20726;-75
2021/04/08 11:21:29;;;;;;;28.05;26.27;;;9.50;46.20;;;;;;5134524;27;20285;-76
2021/04/08 11:23:56;;;;;;;27.65;25.15;;;9.60;46.60;;;;;;5134218;27;20277;-76
2021/04/08 11:26:23;;;;;;;26.40;24.83;;;9.60;46.20;;;;;;5133588;27;20194;-76
2021/04/08 11:28:57;;;;;;;29.48;27.75;;;9.70;46.20;;;;;;5134366;27;20193;-77
2021/04/08 11:31:26;;;;;;;25.80;24.30;;;10.00;45.20;;;;;;5134495;27;20224;-77
2021/04/08 11:33:56;;;;;;;27.00;25.40;;;10.00;44.10;;;;;;5134481;27;20201;-77
2021/04/08 11:36:23;;;;;;;25.88;24.20;;;9.80;44.40;;;;;;5133419;27;20274;-77
2021/04/08 11:38:50;;;;;;;27.52;25.70;;;9.80;44.80;;;;;;5133825;27;20199;-74
2021/04/08 11:41:17;;;;;;;29.00;27.30;;;9.50;45.20;;;;;;5134059;27;20218;-76
2021/04/08 11:43:46;;;;;;;26.08;24.48;;;9.40;46.10;;;;;;5134145;27;20196;-76
2021/04/08 11:46:28;;;;;;;26.05;24.55;;;9.70;52.40;;;;;;5133197;27;20194;-76
2021/04/08 11:48:55;;;;;;;27.90;26.15;;;10.00;45.70;;;;;;5133731;27;20285;-75
2021/04/08 11:51:23;;;;;;;27.10;25.48;;;9.90;44.50;;;;;;5133641;27;20221;-76
2021/04/08 11:53:51;;;;;;;27.45;25.77;;;9.50;45.40;;;;;;5133674;27;20603;-75
2021/04/08 11:56:32;;;;;;;26.73;25.13;;;8.90;46.30;;;;;;5133139;27;20291;-76
2021/04/08 11:59:11;;;;;;;27.23;25.10;;;8.70;47.00;;;;;;5133409;27;20288;-75
2021/04/08 12:01:40;;;;;;;29.70;27.90;;;8.80;47.10;;;;;;5133511;27;20675;-75
2021/04/08 12:04:12;;;;;;;27.38;25.77;;;9.20;46.30;;;;;;5133513;27;20193;-76
2021/04/08 12:06:44;;;;;;;27.58;25.58;;;9.30;46.10;;;;;;5132926;27;20216;-75
2021/04/08 12:09:11;;;;;;;27.33;25.80;;;9.70;46.50;;;;;;5132701;27;20697;-76
2021/04/08 12:11:54;;;;;;;28.55;26.95;;;10.00;44.20;;;;;;5133422;27;20201;-76
2021/04/08 12:14:22;;;;;;;25.60;24.05;;;10.20;44.20;;;;;;5132999;27;20233;-76
2021/04/08 12:17:08;;;;;;;26.80;25.20;;;10.60;43.70;;;;;;5132732;27;20633;-77
2021/04/08 12:19:36;;;;;;;26.88;24.90;;;10.80;43.60;;;;;;5133552;27;21063;-76
2021/04/08 12:22:05;;;;;;;25.02;23.50;;;11.00;42.50;;;;;;5133389;27;20408;-76
2021/04/08 12:24:32;;;;;;;28.20;26.60;;;10.60;43.00;;;;;;5133179;27;20193;-76
2021/04/08 12:26:58;;;;;;;25.43;23.93;;;10.70;44.60;;;;;;5132657;27;20543;-76
2021/04/08 12:29:26;;;;;;;25.57;23.87;;;10.70;43.40;;;;;;5133154;28;20526;-77
2021/04/08 12:31:54;;;;;;;26.20;24.52;;;10.90;44.00;;;;;;5133136;28;20770;-76
2021/04/08 12:34:21;;;;;;;26.30;24.70;;;11.10;44.50;;;;;;5133041;28;20201;-76
2021/04/08 12:36:48;;;;;;;25.67;24.27;;;11.20;44.50;;;;;;5132543;27;20952;-77
2021/04/08 12:39:14;;;;;;;26.23;24.50;;;11.40;47.00;;;;;;5133050;28;20451;-76
2021/04/08 12:41:41;;;;;;;26.67;24.90;;;11.70;46.70;;;;;;5133178;28;20452;-76
2021/04/08 12:44:08;;;;;;;25.87;24.27;;;11.70;43.50;;;;;;5133145;28;20453;-76
2021/04/08 12:46:35;;;;;;;26.30;24.73;;;11.80;45.80;;;;;;5132624;27;20454;-76